Time;durP1;ratioP1;P1;durP2;ratioP2;P2;SDS_P1;SDS_P2;PMS_P1;PMS_P2;Temp;Humidity;BMP_temperature;BMP_pressure;BME280_temperature;BME280_humidity;BME280_pressure;Samples;Min_cycle;Max_cycle;Signal;HPM_P1;HPM_P2
2023/05/31 00:01:48;;;;;;;11.00;5.80;;;;;;;;;;5049275;28;20029;-72
2023/05/31 00:04:14;;;;;;;8.57;5.97;;;;;;;;;;5051331;28;20068;-72
2023/05/31 00:06:40;;;;;;;11.32;6.32;;;;;;;;;;5050766;28;20041;-72
2023/05/31 00:09:06;;;;;;;9.60;6.18;;;;;;;;;;5051185;28;20028;-72
2023/05/31 00:11:31;;;;;;;8.93;5.50;;;;;;;;;;5050106;28;20120;-72
2023/05/31 00:13:57;;;;;;;6.93;5.00;;;;;;;;;;5050856;28;20021;-72
2023/05/31 00:16:23;;;;;;;10.77;5.38;;;;;;;;;;5049571;28;20082;-72
2023/05/31 00:18:48;;;;;;;7.47;5.30;;;;;;;;;;5050777;28;20028;-71
2023/05/31 00:21:14;;;;;;;8.40;5.25;;;;;;;;;;5050581;28;20232;-71
2023/05/31 00:23:40;;;;;;;14.85;6.70;;;;;;;;;;5050105;28;20025;-71
2023/05/31 00:26:06;;;;;;;13.35;6.22;;;;;;;;;;5049613;28;20045;-71
2023/05/31 00:28:31;;;;;;;8.32;5.65;;;;;;;;;;5050576;28;20028;-71
2023/05/31 00:30:58;;;;;;;10.63;6.22;;;;;;;;;;5050643;28;20025;-72
2023/05/31 00:33:24;;;;;;;9.05;5.60;;;;;;;;;;5050581;28;20090;-72
2023/05/31 00:35:50;;;;;;;9.18;5.40;;;;;;;;;;5051831;28;20445;-72
2023/05/31 00:38:15;;;;;;;10.40;6.28;;;;;;;;;;5045242;28;20036;-72
2023/05/31 00:40:41;;;;;;;11.07;6.03;;;;;;;;;;5047603;28;20395;-71
2023/05/31 00:43:08;;;;;;;9.77;6.03;;;;;;;;;;5047856;28;20044;-71
2023/05/31 00:45:34;;;;;;;7.47;5.60;;;;;;;;;;5048939;28;20037;-73
2023/05/31 00:48:01;;;;;;;9.27;6.30;;;;;;;;;;5048390;28;20029;-72
2023/05/31 00:50:27;;;;;;;12.63;6.30;;;;;;;;;;5049550;28;20363;-72
2023/05/31 00:52:56;;;;;;;8.07;5.93;;;;;;;;;;5057016;28;20047;-72
2023/05/31 00:55:23;;;;;;;10.18;5.68;;;;;;;;;;5059498;28;20025;-72
2023/05/31 00:57:50;;;;;;;7.80;5.47;;;;;;;;;;5055813;28;20032;-72
2023/05/31 01:00:18;;;;;;;8.43;5.75;;;;;;;;;;5052317;28;20060;-72
2023/05/31 01:02:44;;;;;;;7.65;5.40;;;;;;;;;;5057594;28;20021;-71
2023/05/31 01:05:10;;;;;;;9.85;5.90;;;;;;;;;;5053168;28;20044;-72
2023/05/31 01:07:36;;;;;;;9.80;6.00;;;;;;;;;;5056987;28;20317;-72
2023/05/31 01:10:04;;;;;;;9.55;6.38;;;;;;;;;;5055755;28;20025;-72
2023/05/31 01:12:30;;;;;;;8.75;6.40;;;;;;;;;;5052289;28;20078;-72
2023/05/31 01:15:07;;;;;;;8.75;6.35;;;;;;;;;;5053219;28;20565;-72
2023/05/31 01:17:38;;;;;;;10.60;5.70;;;;;;;;;;5052753;28;20506;-71
2023/05/31 01:20:10;;;;;;;9.10;6.53;;;;;;;;;;5053270;28;20036;-71
2023/05/31 01:23:10;;;;;;;8.60;6.00;;;;;;;;;;5054450;28;20208;-71
2023/05/31 01:25:41;;;;;;;10.70;5.90;;;;;;;;;;5053227;28;20033;-72
2023/05/31 01:28:10;;;;;;;8.00;5.20;;;;;;;;;;5051677;28;20139;-72
2023/05/31 01:30:37;;;;;;;9.15;5.93;;;;;;;;;;5052313;28;20095;-71
2023/05/31 01:33:07;;;;;;;9.50;6.03;;;;;;;;;;5055921;28;20111;-71
2023/05/31 01:35:33;;;;;;;9.20;5.57;;;;;;;;;;5052908;28;20028;-71
2023/05/31 01:37:59;;;;;;;8.10;6.55;;;;;;;;;;5052544;28;20546;-71
2023/05/31 01:40:27;;;;;;;10.77;5.93;;;;;;;;;;5050953;28;20025;-72
2023/05/31 01:42:53;;;;;;;10.80;6.40;;;;;;;;;;5054966;28;20029;-70
2023/05/31 01:45:19;;;;;;;7.57;6.20;;;;;;;;;;5043031;28;20090;-71
2023/05/31 01:47:47;;;;;;;9.20;6.03;;;;;;;;;;5053600;28;20052;-71
2023/05/31 01:50:13;;;;;;;9.90;6.30;;;;;;;;;;5051514;28;20032;-72
2023/05/31 01:52:40;;;;;;;11.40;6.50;;;;;;;;;;5052440;28;20051;-72
2023/05/31 01:55:07;;;;;;;11.50;6.35;;;;;;;;;;5052617;28;20510;-72
2023/05/31 01:57:38;;;;;;;8.73;6.65;;;;;;;;;;5031705;28;20037;-71
2023/05/31 02:00:15;;;;;;;11.07;6.80;;;;;;;;;;5049604;28;20040;-71
2023/05/31 02:02:44;;;;;;;13.70;6.72;;;;;;;;;;5048150;28;20048;-71
2023/05/31 02:05:12;;;;;;;10.45;7.28;;;;;;;;;;5047629;28;20166;-71
2023/05/31 02:07:43;;;;;;;8.32;7.30;;;;;;;;;;5048459;28;20048;-71
2023/05/31 02:10:10;;;;;;;15.10;7.63;;;;;;;;;;5045668;28;20548;-72
2023/05/31 02:12:37;;;;;;;10.38;7.05;;;;;;;;;;5046844;28;20021;-71
2023/05/31 02:15:10;;;;;;;12.82;6.60;;;;;;;;;;5027310;28;20124;-71
2023/05/31 02:17:40;;;;;;;;;;;;;;;;;;5046395;28;20036;-71
2023/05/31 02:20:10;;;;;;;9.77;6.57;;;;;;;;;;5048052;28;19917;-71
2023/05/31 02:22:36;;;;;;;11.00;6.25;;;;;;;;;;5049457;28;20036;-71
2023/05/31 02:25:02;;;;;;;7.97;6.03;;;;;;;;;;5049951;28;20322;-73
2023/05/31 02:27:28;;;;;;;10.10;6.65;;;;;;;;;;5050466;28;20105;-72
2023/05/31 02:29:54;;;;;;;14.60;6.88;;;;;;;;;;5059967;28;20108;-71
2023/05/31 02:32:20;;;;;;;16.27;7.97;;;;;;;;;;5051659;28;20029;-73
2023/05/31 02:34:47;;;;;;;11.43;7.15;;;;;;;;;;5050659;28;20028;-72
2023/05/31 02:37:13;;;;;;;14.95;7.13;;;;;;;;;;5048860;28;20409;-72
2023/05/31 02:39:38;;;;;;;12.52;7.25;;;;;;;;;;5048046;28;20430;-72
2023/05/31 02:42:05;;;;;;;9.95;6.10;;;;;;;;;;5050691;28;20037;-72
2023/05/31 02:44:31;;;;;;;12.35;6.88;;;;;;;;;;5051319;28;20056;-72
2023/05/31 02:46:57;;;;;;;16.77;8.05;;;;;;;;;;5050069;28;20033;-72
2023/05/31 02:49:23;;;;;;;10.10;6.38;;;;;;;;;;5051596;28;20031;-72
2023/05/31 02:51:49;;;;;;;17.73;7.40;;;;;;;;;;5049899;28;20048;-72
2023/05/31 02:54:15;;;;;;;11.95;7.50;;;;;;;;;;5051683;28;20072;-72
2023/05/31 02:56:40;;;;;;;13.63;6.97;;;;;;;;;;5050076;28;20370;-71
2023/05/31 02:59:12;;;;;;;13.10;7.03;;;;;;;;;;5050184;28;20120;-72
2023/05/31 03:01:46;;;;;;;12.65;7.43;;;;;;;;;;5049641;28;20128;-73
2023/05/31 03:04:31;;;;;;;14.13;7.15;;;;;;;;;;5064595;28;20460;-72
2023/05/31 03:06:58;;;;;;;12.75;7.13;;;;;;;;;;5052879;28;20049;-73
2023/05/31 03:09:23;;;;;;;11.77;7.43;;;;;;;;;;5037555;28;20071;-73
2023/05/31 03:11:50;;;;;;;21.08;8.10;;;;;;;;;;5070739;28;20380;-72
2023/05/31 03:14:18;;;;;;;14.10;7.28;;;;;;;;;;5056916;28;20017;-72
2023/05/31 03:16:50;;;;;;;10.82;7.05;;;;;;;;;;5049989;28;20513;-71
2023/05/31 03:19:16;;;;;;;16.83;7.30;;;;;;;;;;5050079;28;20451;-72
2023/05/31 03:21:44;;;;;;;13.32;6.55;;;;;;;;;;5039257;28;20032;-71
2023/05/31 03:24:10;;;;;;;18.90;7.82;;;;;;;;;;5053738;28;20028;-71
2023/05/31 03:26:36;;;;;;;21.13;9.25;;;;;;;;;;5053861;28;20089;-72
2023/05/31 03:29:02;;;;;;;21.02;8.27;;;;;;;;;;5052287;28;20037;-71
2023/05/31 03:31:29;;;;;;;19.10;8.57;;;;;;;;;;5053552;28;20032;-71
2023/05/31 03:33:56;;;;;;;13.70;8.32;;;;;;;;;;5059825;28;20221;-71
2023/05/31 03:36:22;;;;;;;12.55;7.13;;;;;;;;;;5072030;28;20040;-71
2023/05/31 03:38:47;;;;;;;15.95;7.95;;;;;;;;;;5053604;28;20033;-71
2023/05/31 03:41:15;;;;;;;16.05;7.85;;;;;;;;;;5053037;28;20031;-71
2023/05/31 03:43:40;;;;;;;16.42;7.68;;;;;;;;;;5057140;28;20350;-71
2023/05/31 03:46:06;;;;;;;19.80;9.60;;;;;;;;;;5074962;28;20592;-71
2023/05/31 03:48:32;;;;;;;21.42;8.35;;;;;;;;;;5074755;28;20043;-71
2023/05/31 03:50:58;;;;;;;16.40;7.63;;;;;;;;;;5073207;28;20028;-72
2023/05/31 03:53:24;;;;;;;16.98;8.48;;;;;;;;;;5052303;28;20032;-70
2023/05/31 03:55:50;;;;;;;15.80;8.02;;;;;;;;;;5053503;28;20024;-71
2023/05/31 03:58:17;;;;;;;17.10;6.88;;;;;;;;;;5053361;28;20124;-71
2023/05/31 04:00:43;;;;;;;23.13;7.53;;;;;;;;;;5052706;28;20078;-70
2023/05/31 04:03:11;;;;;;;21.00;7.88;;;;;;;;;;5052913;28;20037;-71
2023/05/31 04:05:41;;;;;;;15.57;6.88;;;;;;;;;;5052627;28;20045;-72
2023/05/31 04:08:07;;;;;;;19.88;7.35;;;;;;;;;;5052565;28;20140;-72
2023/05/31 04:10:33;;;;;;;14.30;7.57;;;;;;;;;;5043582;28;20096;-71
2023/05/31 04:12:59;;;;;;;16.83;7.78;;;;;;;;;;5052348;28;20124;-71
2023/05/31 04:15:26;;;;;;;16.23;7.45;;;;;;;;;;5063854;28;20021;-72
2023/05/31 04:17:56;;;;;;;16.50;8.50;;;;;;;;;;5044810;28;20029;-72
2023/05/31 04:20:22;;;;;;;19.02;7.50;;;;;;;;;;5051523;28;20063;-72
2023/05/31 04:22:49;;;;;;;18.80;7.65;;;;;;;;;;5052452;28;20049;-72
2023/05/31 04:25:17;;;;;;;8.73;6.18;;;;;;;;;;5054160;28;20487;-72
2023/05/31 04:27:43;;;;;;;17.17;7.00;;;;;;;;;;5052246;28;20493;-71
2023/05/31 04:30:09;;;;;;;22.15;7.45;;;;;;;;;;5051709;28;20082;-71
2023/05/31 04:32:35;;;;;;;18.13;7.00;;;;;;;;;;5052183;28;20013;-72
2023/05/31 04:35:03;;;;;;;22.08;7.43;;;;;;;;;;5049579;28;20451;-71
2023/05/31 04:37:30;;;;;;;9.00;5.85;;;;;;;;;;5048268;28;20108;-71
2023/05/31 04:39:59;;;;;;;18.05;5.85;;;;;;;;;;5047911;28;20139;-72
2023/05/31 04:42:26;;;;;;;8.85;5.55;;;;;;;;;;5048017;28;20087;-71
2023/05/31 04:44:57;;;;;;;10.18;5.00;;;;;;;;;;5049009;28;20124;-71
2023/05/31 04:47:28;;;;;;;13.48;5.30;;;;;;;;;;5074120;28;20048;-71
2023/05/31 04:49:58;;;;;;;8.45;5.28;;;;;;;;;;5048638;28;20029;-71
2023/05/31 04:52:30;;;;;;;7.40;5.00;;;;;;;;;;5045282;28;20036;-71
2023/05/31 04:54:57;;;;;;;10.60;5.03;;;;;;;;;;5047578;28;20111;-71
2023/05/31 04:57:24;;;;;;;11.55;4.50;;;;;;;;;;5048391;28;20418;-72
2023/05/31 04:59:50;;;;;;;10.23;5.03;;;;;;;;;;5045153;28;20054;-71
2023/05/31 05:02:18;;;;;;;7.07;4.03;;;;;;;;;;5049671;28;20458;-71
2023/05/31 05:04:45;;;;;;;7.07;4.25;;;;;;;;;;5048667;28;20037;-71
2023/05/31 05:07:11;;;;;;;11.77;4.47;;;;;;;;;;5049880;28;20494;-71
2023/05/31 05:09:37;;;;;;;8.40;4.47;;;;;;;;;;5051619;28;20560;-71
2023/05/31 05:12:04;;;;;;;8.43;4.30;;;;;;;;;;5051125;28;20021;-71
2023/05/31 05:14:32;;;;;;;10.82;5.25;;;;;;;;;;5051055;28;20130;-71
2023/05/31 05:16:58;;;;;;;10.38;5.00;;;;;;;;;;5052286;28;20455;-72
2023/05/31 05:19:24;;;;;;;9.02;4.35;;;;;;;;;;5049676;28;20039;-73
2023/05/31 05:21:50;;;;;;;10.20;4.22;;;;;;;;;;5048604;28;20028;-72
2023/05/31 05:24:16;;;;;;;5.10;3.58;;;;;;;;;;5033295;28;20029;-72
2023/05/31 05:26:43;;;;;;;9.63;3.88;;;;;;;;;;5049816;28;20423;-72
2023/05/31 05:32:58;;;;;;;7.38;4.50;;;;;;;;;;5032083;28;20041;-70
2023/05/31 05:35:24;;;;;;;13.25;4.68;;;;;;;;;;5035092;28;20029;-71
2023/05/31 05:37:50;;;;;;;14.30;5.13;;;;;;;;;;5049280;28;20394;-72
2023/05/31 05:40:16;;;;;;;7.10;3.95;;;;;;;;;;5048647;28;20044;-71
2023/05/31 05:42:42;;;;;;;6.60;4.45;;;;;;;;;;5049556;28;20032;-71
2023/05/31 05:45:09;;;;;;;6.13;4.03;;;;;;;;;;5049656;28;20064;-71
2023/05/31 05:47:37;;;;;;;6.15;4.35;;;;;;;;;;5049699;28;20100;-72
2023/05/31 05:50:05;;;;;;;6.45;4.05;;;;;;;;;;5048145;28;20527;-72
2023/05/31 05:52:31;;;;;;;7.88;5.18;;;;;;;;;;5049670;28;20375;-70
2023/05/31 05:54:57;;;;;;;19.70;5.90;;;;;;;;;;5049777;28;20044;-70
2023/05/31 05:57:24;;;;;;;12.45;4.55;;;;;;;;;;5049120;28;20117;-71
2023/05/31 05:59:54;;;;;;;9.18;4.60;;;;;;;;;;5048106;28;20032;-71
2023/05/31 06:02:21;;;;;;;15.32;4.80;;;;;;;;;;5049901;28;20510;-71
2023/05/31 06:04:49;;;;;;;9.57;4.68;;;;;;;;;;5047311;28;20040;-71
2023/05/31 06:07:16;;;;;;;13.10;4.50;;;;;;;;;;5044605;28;20021;-72
2023/05/31 06:09:42;;;;;;;8.27;4.10;;;;;;;;;;5048387;28;20041;-71
2023/05/31 06:12:09;;;;;;;7.32;4.70;;;;;;;;;;5044954;28;20074;-72
2023/05/31 06:14:38;;;;;;;6.45;4.25;;;;;;;;;;5050219;28;20117;-71
2023/05/31 06:17:05;;;;;;;5.88;3.70;;;;;;;;;;5050378;28;20372;-71
2023/05/31 06:19:31;;;;;;;8.23;4.00;;;;;;;;;;5047070;28;20107;-71
2023/05/31 06:21:57;;;;;;;11.35;3.88;;;;;;;;;;5049800;28;20140;-71
2023/05/31 06:24:23;;;;;;;9.05;3.75;;;;;;;;;;5048291;28;20539;-72
2023/05/31 06:26:49;;;;;;;8.75;3.90;;;;;;;;;;5043216;28;20107;-71
2023/05/31 06:29:16;;;;;;;10.13;4.00;;;;;;;;;;5043243;28;20303;-72
2023/05/31 06:31:56;;;;;;;9.48;3.53;;;;;;;;;;5047209;28;20040;-73
2023/05/31 06:34:24;;;;;;;8.13;3.90;;;;;;;;;;5043097;28;20491;-73
2023/05/31 06:36:52;;;;;;;7.32;3.90;;;;;;;;;;5041640;28;20032;-72
2023/05/31 06:39:18;;;;;;;6.43;3.72;;;;;;;;;;5044696;28;20025;-73
2023/05/31 06:41:44;;;;;;;10.05;3.53;;;;;;;;;;5047614;28;20031;-72
2023/05/31 06:44:29;;;;;;;6.93;3.83;;;;;;;;;;5044653;28;20413;-72
2023/05/31 06:47:07;;;;;;;11.27;3.88;;;;;;;;;;5044584;28;20104;-72
2023/05/31 06:49:55;;;;;;;8.60;4.10;;;;;;;;;;5050346;28;20502;-72
2023/05/31 06:52:50;;;;;;;7.47;4.20;;;;;;;;;;5043450;28;20040;-73
2023/05/31 06:55:38;;;;;;;9.90;3.75;;;;;;;;;;5047163;28;20029;-73
2023/05/31 06:58:05;;;;;;;7.05;3.75;;;;;;;;;;5048272;28;20171;-72
2023/05/31 07:00:33;;;;;;;4.70;3.30;;;;;;;;;;5047931;28;20120;-72
2023/05/31 07:02:59;;;;;;;6.90;3.47;;;;;;;;;;5048745;28;20167;-73
2023/05/31 07:05:31;;;;;;;9.80;3.92;;;;;;;;;;5043563;28;20108;-73
2023/05/31 07:07:58;;;;;;;7.85;3.75;;;;;;;;;;5047293;28;20569;-72
2023/05/31 07:10:23;;;;;;;5.63;3.72;;;;;;;;;;5043462;28;20024;-71
2023/05/31 07:12:50;;;;;;;9.40;4.30;;;;;;;;;;5042944;28;20021;-70
2023/05/31 07:15:17;;;;;;;8.93;4.03;;;;;;;;;;5048190;28;20028;-72
2023/05/31 07:17:43;;;;;;;14.43;5.80;;;;;;;;;;5048528;28;20033;-72
2023/05/31 07:20:09;;;;;;;10.52;4.35;;;;;;;;;;5046192;28;20021;-72
2023/05/31 07:22:35;;;;;;;9.30;4.05;;;;;;;;;;5049586;28;20052;-72
2023/05/31 07:25:00;;;;;;;5.20;3.40;;;;;;;;;;5049113;28;20097;-72
2023/05/31 07:27:26;;;;;;;7.05;3.75;;;;;;;;;;5049210;28;20466;-73
2023/05/31 07:29:52;;;;;;;9.35;3.60;;;;;;;;;;5048901;28;20031;-71
2023/05/31 07:32:17;;;;;;;7.68;3.78;;;;;;;;;;5045709;28;20073;-72
2023/05/31 07:34:43;;;;;;;11.77;7.25;;;;;;;;;;5042114;28;20025;-71
2023/05/31 07:37:09;;;;;;;17.83;7.80;;;;;;;;;;5049793;28;20033;-72
2023/05/31 07:39:35;;;;;;;4.95;3.50;;;;;;;;;;5047405;28;20021;-73
2023/05/31 07:42:01;;;;;;;6.80;3.67;;;;;;;;;;5041935;28;20115;-72
2023/05/31 07:44:27;;;;;;;5.40;3.22;;;;;;;;;;5030892;28;20036;-72
2023/05/31 07:46:53;;;;;;;4.72;2.90;;;;;;;;;;5049958;28;20443;-72
2023/05/31 07:49:19;;;;;;;5.68;3.67;;;;;;;;;;5045139;28;20123;-72
2023/05/31 07:51:46;;;;;;;5.30;3.05;;;;;;;;;;5050426;28;20031;-72
2023/05/31 07:54:12;;;;;;;8.23;3.30;;;;;;;;;;5041992;28;20033;-72
2023/05/31 07:56:37;;;;;;;11.90;4.18;;;;;;;;;;5049932;28;20142;-71
2023/05/31 07:59:03;;;;;;;6.50;3.85;;;;;;;;;;5049333;28;20024;-72
2023/05/31 08:01:29;;;;;;;6.07;3.67;;;;;;;;;;5047741;28;20029;-71
2023/05/31 08:04:04;;;;;;;6.18;3.95;;;;;;;;;;5047909;28;20081;-71
2023/05/31 08:06:30;;;;;;;10.25;4.15;;;;;;;;;;5049648;28;20070;-72
2023/05/31 08:08:56;;;;;;;9.25;4.50;;;;;;;;;;5031964;28;20034;-72
2023/05/31 08:11:21;;;;;;;9.02;4.28;;;;;;;;;;5033335;28;20160;-71
2023/05/31 08:13:47;;;;;;;7.50;3.90;;;;;;;;;;5034017;28;20108;-72
2023/05/31 08:16:13;;;;;;;5.05;3.67;;;;;;;;;;5033874;28;20034;-71
2023/05/31 08:18:38;;;;;;;6.35;4.00;;;;;;;;;;5033451;28;20044;-72
2023/05/31 08:21:04;;;;;;;5.63;3.80;;;;;;;;;;5041640;28;20486;-71
2023/05/31 08:23:30;;;;;;;7.72;3.83;;;;;;;;;;5046892;28;20095;-72
2023/05/31 08:25:56;;;;;;;8.18;3.55;;;;;;;;;;5053086;28;20052;-73
2023/05/31 08:28:22;;;;;;;6.93;3.88;;;;;;;;;;5050485;28;20121;-71
2023/05/31 08:30:48;;;;;;;6.47;3.72;;;;;;;;;;5052572;28;20043;-73
2023/05/31 08:33:14;;;;;;;6.38;4.00;;;;;;;;;;5052860;28;20025;-73
2023/05/31 08:35:40;;;;;;;8.35;4.30;;;;;;;;;;5053386;28;20402;-72
2023/05/31 08:38:06;;;;;;;12.48;5.13;;;;;;;;;;5052959;28;20497;-72
2023/05/31 08:40:32;;;;;;;9.35;4.07;;;;;;;;;;5053163;28;20108;-73
2023/05/31 08:43:15;;;;;;;7.32;4.60;;;;;;;;;;5053053;28;20376;-72
2023/05/31 08:45:42;;;;;;;10.73;4.90;;;;;;;;;;5053116;28;20116;-71
2023/05/31 08:48:10;;;;;;;9.95;5.07;;;;;;;;;;5052867;28;20032;-72
2023/05/31 08:50:36;;;;;;;12.27;5.95;;;;;;;;;;5052849;28;20094;-73
2023/05/31 08:53:04;;;;;;;15.18;6.25;;;;;;;;;;5052899;28;20082;-72
2023/05/31 08:55:30;;;;;;;10.73;6.10;;;;;;;;;;5052083;28;20085;-72
2023/05/31 08:57:57;;;;;;;10.40;6.28;;;;;;;;;;5051604;28;20037;-74
2023/05/31 09:00:26;;;;;;;9.95;5.88;;;;;;;;;;5053330;28;20033;-72
2023/05/31 09:02:53;;;;;;;11.75;6.53;;;;;;;;;;5053081;28;20061;-72
2023/05/31 09:05:18;;;;;;;14.45;6.85;;;;;;;;;;5052078;28;20450;-70
2023/05/31 09:07:46;;;;;;;13.80;6.38;;;;;;;;;;5050216;28;20021;-73
2023/05/31 09:10:14;;;;;;;11.88;6.25;;;;;;;;;;5044465;28;20487;-72
2023/05/31 09:12:40;;;;;;;14.48;8.05;;;;;;;;;;5052220;28;20032;-72
2023/05/31 09:15:08;;;;;;;7.93;6.57;;;;;;;;;;5052507;28;20112;-72
2023/05/31 09:17:33;;;;;;;10.95;6.18;;;;;;;;;;5052850;28;20033;-74
2023/05/31 09:20:00;;;;;;;9.45;6.43;;;;;;;;;;5051662;28;20116;-71
2023/05/31 09:22:27;;;;;;;9.38;6.47;;;;;;;;;;5049031;28;20086;-71
2023/05/31 09:24:57;;;;;;;9.55;6.72;;;;;;;;;;5051689;28;20047;-71
2023/05/31 09:27:23;;;;;;;9.50;5.93;;;;;;;;;;5051693;28;20041;-71
2023/05/31 09:29:56;;;;;;;13.98;7.45;;;;;;;;;;5049822;28;20020;-70
2023/05/31 09:32:22;;;;;;;8.73;5.45;;;;;;;;;;5045441;28;20040;-71
2023/05/31 09:34:47;;;;;;;7.75;5.32;;;;;;;;;;5050664;28;20021;-71
2023/05/31 09:37:24;;;;;;;11.93;7.68;;;;;;;;;;5052154;28;20174;-74
2023/05/31 09:39:57;;;;;;;7.82;5.63;;;;;;;;;;5049417;28;20040;-72
2023/05/31 09:42:29;;;;;;;13.35;6.20;;;;;;;;;;5049944;28;20040;-73
2023/05/31 09:44:55;;;;;;;8.73;5.07;;;;;;;;;;5050266;28;20032;-72
2023/05/31 09:47:25;;;;;;;11.52;5.72;;;;;;;;;;5046578;28;20486;-73
2023/05/31 09:49:55;;;;;;;8.88;4.43;;;;;;;;;;5052220;28;20025;-72
2023/05/31 09:52:27;;;;;;;7.18;5.15;;;;;;;;;;5048452;28;20443;-72
2023/05/31 09:54:56;;;;;;;11.80;5.20;;;;;;;;;;5047739;28;20491;-72
2023/05/31 09:57:32;;;;;;;19.88;7.93;;;;;;;;;;5049518;28;20082;-72
2023/05/31 09:59:59;;;;;;;21.33;5.75;;;;;;;;;;5048998;28;20106;-72
2023/05/31 10:02:27;;;;;;;12.73;5.80;;;;;;;;;;5051577;28;20020;-71
2023/05/31 10:04:58;;;;;;;12.05;6.07;;;;;;;;;;5050718;28;20079;-73
2023/05/31 10:07:27;;;;;;;7.50;5.03;;;;;;;;;;5049641;28;20029;-73
2023/05/31 10:09:52;;;;;;;28.27;7.68;;;;;;;;;;5051607;28;20086;-74
2023/05/31 10:12:22;;;;;;;8.52;5.20;;;;;;;;;;5051487;28;20029;-74
2023/05/31 10:14:55;;;;;;;9.32;5.18;;;;;;;;;;5051360;28;20068;-73
2023/05/31 10:17:23;;;;;;;18.35;6.60;;;;;;;;;;5050949;28;20386;-74
2023/05/31 10:19:56;;;;;;;11.77;6.05;;;;;;;;;;5050643;28;20158;-73
2023/05/31 10:22:26;;;;;;;10.13;6.10;;;;;;;;;;5049396;28;20114;-73
2023/05/31 10:24:58;;;;;;;10.32;6.35;;;;;;;;;;5044316;28;20021;-72
2023/05/31 10:32:43;;;;;;;27.00;7.28;;;;;;;;;;4989013;28;20066;-72
2023/05/31 10:35:10;;;;;;;12.57;5.25;;;;;;;;;;4989833;28;20041;-71
2023/05/31 10:37:43;;;;;;;11.40;5.15;;;;;;;;;;4992390;28;20512;-73
2023/05/31 10:40:17;;;;;;;11.25;5.03;;;;;;;;;;4991605;28;20082;-73
2023/05/31 10:43:10;;;;;;;12.07;5.22;;;;;;;;;;4991959;28;20476;-72
2023/05/31 10:45:44;;;;;;;6.93;4.47;;;;;;;;;;4982557;28;20546;-72
2023/05/31 10:59:44;;;;;;;8.50;4.75;;;;;;;;;;4991700;28;20491;-73
2023/05/31 11:02:11;;;;;;;10.13;4.50;;;;;;;;;;4992099;28;20038;-73
2023/05/31 11:04:37;;;;;;;8.00;4.15;;;;;;;;;;4992036;28;20072;-73
2023/05/31 11:07:18;;;;;;;10.85;4.38;;;;;;;;;;4990832;28;20034;-73
2023/05/31 11:09:59;;;;;;;6.70;4.07;;;;;;;;;;4992239;28;20479;-74
2023/05/31 11:12:33;;;;;;;9.60;4.75;;;;;;;;;;4991869;28;20066;-74
2023/05/31 11:15:03;;;;;;;7.00;4.43;;;;;;;;;;4991911;28;20133;-73
2023/05/31 11:17:39;;;;;;;7.95;5.25;;;;;;;;;;4991054;28;20061;-74
2023/05/31 11:20:06;;;;;;;8.10;3.88;;;;;;;;;;4990105;28;20117;-75
2023/05/31 11:22:32;;;;;;;7.00;4.30;;;;;;;;;;4990885;28;20027;-74
2023/05/31 11:24:58;;;;;;;10.98;4.25;;;;;;;;;;4989749;28;20664;-75
2023/05/31 11:27:38;;;;;;;11.07;5.15;;;;;;;;;;4990965;28;20029;-74
2023/05/31 11:30:12;;;;;;;8.13;4.40;;;;;;;;;;4991370;28;20454;-73
2023/05/31 11:32:38;;;;;;;11.07;4.53;;;;;;;;;;4992043;28;20479;-75
2023/05/31 11:35:06;;;;;;;6.75;4.20;;;;;;;;;;4992074;28;20026;-73
2023/05/31 11:37:37;;;;;;;5.35;3.83;;;;;;;;;;4973693;28;20042;-75
2023/05/31 11:40:08;;;;;;;7.18;4.03;;;;;;;;;;4991645;28;20057;-75
2023/05/31 11:42:43;;;;;;;7.20;4.00;;;;;;;;;;4993077;28;20062;-72
2023/05/31 11:45:17;;;;;;;9.50;4.55;;;;;;;;;;4995636;28;20092;-74
2023/05/31 11:48:04;;;;;;;10.23;4.00;;;;;;;;;;4995778;28;20030;-73
2023/05/31 11:50:30;;;;;;;8.63;5.30;;;;;;;;;;4995660;28;20980;-74
2023/05/31 11:52:58;;;;;;;5.45;4.63;;;;;;;;;;4994711;28;20021;-75
2023/05/31 11:55:35;;;;;;;10.10;5.07;;;;;;;;;;4995761;28;20046;-73
2023/05/31 11:58:01;;;;;;;6.93;4.28;;;;;;;;;;4989078;28;20039;-73
2023/05/31 12:00:28;;;;;;;10.38;4.60;;;;;;;;;;4992462;28;20472;-73
2023/05/31 12:03:04;;;;;;;9.30;3.88;;;;;;;;;;4989991;28;20034;-74
2023/05/31 12:05:30;;;;;;;6.68;4.35;;;;;;;;;;4986250;28;20110;-75
2023/05/31 12:07:57;;;;;;;8.85;5.18;;;;;;;;;;4989767;28;20073;-73
2023/05/31 12:10:31;;;;;;;9.80;5.80;;;;;;;;;;4989672;28;20522;-74
2023/05/31 12:12:58;;;;;;;12.30;5.82;;;;;;;;;;4995391;28;20109;-75
2023/05/31 12:15:25;;;;;;;6.63;4.97;;;;;;;;;;4995491;28;20033;-75
2023/05/31 12:17:51;;;;;;;9.07;5.43;;;;;;;;;;4994615;28;20058;-74
2023/05/31 12:20:17;;;;;;;9.52;5.47;;;;;;;;;;4995624;28;20569;-74
2023/05/31 12:22:43;;;;;;;9.95;5.32;;;;;;;;;;4995669;28;20034;-75
2023/05/31 12:25:09;;;;;;;10.07;5.20;;;;;;;;;;4995344;28;20049;-74
2023/05/31 12:27:36;;;;;;;7.72;4.95;;;;;;;;;;4995341;28;20042;-74
2023/05/31 12:30:04;;;;;;;7.30;5.43;;;;;;;;;;4995581;28;20545;-75
2023/05/31 12:32:30;;;;;;;8.07;5.38;;;;;;;;;;4994163;28;20591;-75
2023/05/31 12:35:07;;;;;;;8.82;5.53;;;;;;;;;;4995094;28;20042;-75
2023/05/31 12:37:35;;;;;;;7.85;5.60;;;;;;;;;;4995056;28;20038;-75
2023/05/31 12:40:15;;;;;;;7.25;5.22;;;;;;;;;;4994716;28;20034;-75
2023/05/31 12:42:42;;;;;;;7.80;6.00;;;;;;;;;;4994852;28;20035;-74
2023/05/31 12:45:08;;;;;;;8.55;5.75;;;;;;;;;;4994584;28;20376;-73
2023/05/31 12:47:35;;;;;;;10.05;6.28;;;;;;;;;;4994908;28;20480;-74
2023/05/31 12:50:05;;;;;;;9.25;6.05;;;;;;;;;;4994939;28;20056;-75
2023/05/31 12:52:33;;;;;;;10.10;5.97;;;;;;;;;;4995062;28;20031;-74
2023/05/31 12:55:00;;;;;;;10.70;6.28;;;;;;;;;;4992415;28;20387;-74
2023/05/31 12:57:26;;;;;;;10.85;6.22;;;;;;;;;;4995328;28;20076;-74
2023/05/31 13:00:09;;;;;;;7.93;6.00;;;;;;;;;;4994159;28;20026;-75
2023/05/31 13:02:36;;;;;;;10.45;5.88;;;;;;;;;;4995313;28;20030;-76
2023/05/31 13:05:02;;;;;;;7.93;5.95;;;;;;;;;;4994118;28;20042;-74
2023/05/31 13:07:27;;;;;;;11.80;5.90;;;;;;;;;;4993844;28;20114;-74
2023/05/31 13:09:53;;;;;;;8.43;6.40;;;;;;;;;;4990568;28;20054;-74
2023/05/31 13:12:21;;;;;;;9.23;5.72;;;;;;;;;;4994503;28;20117;-73
2023/05/31 13:14:47;;;;;;;11.43;6.30;;;;;;;;;;4993577;28;20022;-74
2023/05/31 13:17:14;;;;;;;8.25;5.88;;;;;;;;;;4986663;28;20412;-74
2023/05/31 13:19:40;;;;;;;7.68;5.95;;;;;;;;;;4978220;28;20062;-74
2023/05/31 13:22:06;;;;;;;15.95;5.95;;;;;;;;;;4978642;28;20416;-74
2023/05/31 13:24:32;;;;;;;13.70;7.05;;;;;;;;;;4983404;28;20034;-72
2023/05/31 13:26:58;;;;;;;7.80;5.75;;;;;;;;;;4983058;28;20034;-73
2023/05/31 13:29:25;;;;;;;7.63;5.75;;;;;;;;;;4979567;28;20425;-74
2023/05/31 13:31:51;;;;;;;9.85;5.75;;;;;;;;;;4978355;28;20034;-73
2023/05/31 13:34:18;;;;;;;10.75;6.13;;;;;;;;;;4981415;28;20054;-72
2023/05/31 13:36:44;;;;;;;8.80;5.40;;;;;;;;;;4989781;28;20022;-74
2023/05/31 13:39:14;;;;;;;6.55;5.10;;;;;;;;;;4991722;28;20026;-73
2023/05/31 13:41:44;;;;;;;8.57;6.07;;;;;;;;;;4992295;28;20037;-72
2023/05/31 13:44:12;;;;;;;5.80;4.82;;;;;;;;;;4992396;28;20057;-72
2023/05/31 13:46:39;;;;;;;8.70;5.35;;;;;;;;;;4993153;28;20375;-72
2023/05/31 13:49:05;;;;;;;9.82;5.30;;;;;;;;;;4991880;28;20031;-72
2023/05/31 13:51:30;;;;;;;7.93;5.22;;;;;;;;;;4993391;28;20480;-73
2023/05/31 13:53:56;;;;;;;10.23;5.57;;;;;;;;;;4993654;28;20026;-73
2023/05/31 13:56:22;;;;;;;5.82;4.72;;;;;;;;;;4973860;28;20039;-73
2023/05/31 13:58:47;;;;;;;9.57;5.13;;;;;;;;;;4993313;28;20101;-72
2023/05/31 14:01:14;;;;;;;5.93;4.60;;;;;;;;;;4993822;28;20042;-72
2023/05/31 14:03:42;;;;;;;8.93;4.30;;;;;;;;;;4992866;28;20026;-72
2023/05/31 14:06:09;;;;;;;7.60;4.68;;;;;;;;;;4992651;28;20034;-73
2023/05/31 14:08:35;;;;;;;5.90;4.47;;;;;;;;;;4993254;28;20148;-72
2023/05/31 14:11:01;;;;;;;9.00;4.63;;;;;;;;;;4993097;28;20038;-73
2023/05/31 14:13:28;;;;;;;8.25;4.65;;;;;;;;;;4990759;28;20112;-72
2023/05/31 14:15:54;;;;;;;9.88;4.20;;;;;;;;;;4992085;28;20026;-73
2023/05/31 14:18:20;;;;;;;6.03;4.30;;;;;;;;;;4974099;28;20548;-72
2023/05/31 14:20:47;;;;;;;6.50;4.38;;;;;;;;;;4993136;28;20049;-73
2023/05/31 14:23:12;;;;;;;9.05;4.65;;;;;;;;;;4991867;28;20022;-72
2023/05/31 14:25:38;;;;;;;7.75;3.95;;;;;;;;;;4991910;28;20036;-73
2023/05/31 14:28:04;;;;;;;6.50;4.45;;;;;;;;;;4991943;28;20383;-71
2023/05/31 14:30:31;;;;;;;6.30;3.97;;;;;;;;;;4992981;28;20487;-73
2023/05/31 14:32:57;;;;;;;6.47;4.53;;;;;;;;;;4992886;28;20542;-74
2023/05/31 14:35:23;;;;;;;9.93;4.53;;;;;;;;;;4991383;28;20503;-73
2023/05/31 14:37:48;;;;;;;10.63;3.88;;;;;;;;;;4991660;28;20022;-74
2023/05/31 14:40:14;;;;;;;6.00;4.43;;;;;;;;;;4992554;28;20031;-72
2023/05/31 14:42:40;;;;;;;6.90;4.63;;;;;;;;;;4992786;28;20019;-74
2023/05/31 14:45:08;;;;;;;7.60;4.53;;;;;;;;;;4992403;28;20141;-73
2023/05/31 14:47:36;;;;;;;8.25;5.15;;;;;;;;;;4992496;28;20077;-72
2023/05/31 14:50:03;;;;;;;10.55;4.85;;;;;;;;;;4992590;28;20038;-75
2023/05/31 14:52:29;;;;;;;6.03;4.43;;;;;;;;;;4977945;28;20026;-72
2023/05/31 14:54:55;;;;;;;7.60;4.78;;;;;;;;;;4991953;28;20036;-73
2023/05/31 14:57:21;;;;;;;7.07;4.80;;;;;;;;;;4992351;28;20099;-73
2023/05/31 14:59:46;;;;;;;9.27;4.57;;;;;;;;;;4995001;28;20030;-73
2023/05/31 15:02:13;;;;;;;11.15;4.95;;;;;;;;;;4994713;28;20026;-73
2023/05/31 15:04:40;;;;;;;6.90;4.70;;;;;;;;;;4994465;28;20387;-74